createdAt,value
2022-12-15T00:00:32.588Z,13.93
2022-12-15T00:05:03.383Z,16.60
2022-12-15T00:09:34.057Z,10.75
2022-12-15T00:14:04.925Z,15.70
2022-12-15T00:18:35.768Z,11.82
2022-12-15T00:23:09.980Z,17.23
2022-12-15T00:27:48.576Z,16.55
2022-12-15T00:32:19.303Z,12.18
2022-12-15T00:36:50.125Z,12.60
2022-12-15T00:41:02.829Z,13.25
2022-12-15T00:45:15.200Z,12.13
2022-12-15T00:49:48.744Z,18.33
2022-12-15T00:54:19.977Z,14.05
2022-12-15T00:58:50.637Z,13.07
2022-12-15T01:03:36.424Z,14.02
2022-12-15T01:08:07.569Z,12.30
2022-12-15T01:12:38.096Z,15.43
2022-12-15T01:17:08.891Z,11.13
2022-12-15T01:21:24.666Z,13.32
2022-12-15T01:25:40.273Z,9.55
2022-12-15T01:29:52.586Z,10.65
2022-12-15T01:34:05.039Z,14.50
2022-12-15T01:38:17.341Z,14.95
2022-12-15T01:42:29.784Z,10.27
2022-12-15T01:46:42.299Z,13.63
2022-12-15T01:51:14.426Z,12.20
2022-12-15T01:55:31.109Z,16.23
2022-12-15T01:59:51.552Z,12.80
2022-12-15T02:04:04.131Z,15.90
2022-12-15T02:08:16.550Z,18.65
2022-12-15T02:12:44.907Z,22.63
2022-12-15T02:17:13.019Z,10.55
2022-12-15T02:21:32.204Z,10.75
2022-12-15T02:26:27.304Z,16.70
2022-12-15T02:31:37.178Z,12.23
2022-12-15T02:36:08.509Z,16.60
2022-12-15T02:40:20.847Z,13.88
2022-12-15T02:44:56.835Z,14.38
2022-12-15T02:49:36.286Z,17.08
2022-12-15T02:54:08.160Z,15.65
2022-12-15T02:58:29.309Z,13.65
2022-12-15T03:02:45.572Z,18.13
2022-12-15T03:07:11.119Z,18.65
2022-12-15T03:11:23.847Z,18.17
2022-12-15T03:15:38.270Z,13.20
2022-12-15T03:19:50.588Z,19.17
2022-12-15T03:24:02.892Z,13.82
2022-12-15T03:28:15.190Z,14.30
2022-12-15T03:32:27.524Z,17.58
2022-12-15T03:36:39.920Z,14.57
2022-12-15T03:40:52.210Z,16.33
2022-12-15T03:45:05.371Z,17.15
2022-12-15T03:49:17.699Z,17.75
2022-12-15T03:53:30.358Z,16.92
2022-12-15T03:57:42.996Z,19.33
2022-12-15T04:01:55.409Z,16.13
2022-12-15T04:06:07.947Z,18.05
2022-12-15T04:10:20.600Z,22.60
2022-12-15T04:14:33.141Z,18.60
2022-12-15T04:18:45.936Z,14.00
2022-12-15T04:22:58.354Z,16.77
2022-12-15T04:27:35.899Z,14.20
2022-12-15T04:32:06.512Z,17.50
2022-12-15T04:36:48.415Z,16.42
2022-12-15T04:41:19.614Z,18.20
2022-12-15T04:45:50.297Z,14.02
2022-12-15T04:50:20.903Z,11.95
2022-12-15T04:54:51.627Z,16.63
2022-12-15T04:59:23.388Z,16.17
2022-12-15T05:03:56.115Z,14.13
2022-12-15T05:08:27.106Z,17.75
2022-12-15T05:13:07.098Z,14.95
2022-12-15T05:17:41.423Z,16.33
2022-12-15T05:22:13.477Z,16.00
2022-12-15T05:26:47.783Z,16.63
2022-12-15T05:31:25.655Z,15.52
2022-12-15T05:35:37.997Z,15.75
2022-12-15T05:39:50.282Z,16.98
2022-12-15T05:44:02.597Z,19.73
2022-12-15T05:48:15.427Z,17.02
2022-12-15T05:52:28.849Z,17.48
2022-12-15T05:56:41.216Z,16.27
2022-12-15T06:01:15.008Z,16.30
2022-12-15T06:05:27.320Z,16.70
2022-12-15T06:09:40.097Z,20.83
2022-12-15T06:13:52.465Z,17.10
2022-12-15T06:18:04.911Z,16.20
2022-12-15T06:22:17.323Z,18.17
2022-12-15T06:26:35.865Z,22.17
2022-12-15T06:30:48.720Z,14.57
2022-12-15T06:35:00.974Z,19.17
2022-12-15T06:39:15.940Z,22.70
2022-12-15T06:43:29.863Z,15.57
2022-12-15T06:47:42.442Z,14.93
2022-12-15T06:51:54.767Z,16.58
2022-12-15T06:56:09.327Z,16.08
2022-12-15T07:00:21.758Z,18.33
2022-12-15T07:04:34.523Z,18.23
2022-12-15T07:08:54.668Z,18.65
2022-12-15T07:17:28.317Z,16.88
2022-12-15T07:21:41.951Z,17.77
2022-12-15T07:25:54.235Z,17.77
2022-12-15T07:30:08.380Z,15.90
2022-12-15T07:34:20.940Z,14.27
2022-12-15T07:38:33.258Z,19.55
2022-12-15T07:42:45.579Z,17.05
2022-12-15T07:46:57.903Z,14.57
2022-12-15T07:51:18.874Z,21.00
2022-12-15T07:55:57.282Z,24.08
2022-12-15T08:00:06.596Z,14.35
2022-12-15T08:04:20.132Z,19.60
2022-12-15T08:08:33.761Z,15.15
2022-12-15T08:12:46.613Z,23.38
2022-12-15T08:16:59.065Z,22.73
2022-12-15T08:21:12.887Z,18.42
2022-12-15T08:25:29.489Z,24.58
2022-12-15T08:29:51.494Z,21.75
2022-12-15T08:34:06.364Z,15.48
2022-12-15T08:38:19.816Z,20.23
2022-12-15T08:42:38.990Z,22.13
2022-12-15T08:46:52.031Z,22.83
2022-12-15T08:51:04.457Z,22.27
2022-12-15T08:55:22.273Z,22.92
2022-12-15T08:59:44.376Z,21.25
2022-12-15T09:03:57.722Z,22.38
2022-12-15T09:08:10.097Z,19.25
2022-12-15T09:12:22.417Z,18.33
2022-12-15T09:16:34.889Z,22.52
2022-12-15T09:20:47.183Z,21.02
2022-12-15T09:24:59.479Z,26.48
2022-12-15T09:29:13.979Z,21.02
2022-12-15T09:33:26.366Z,21.17
2022-12-15T09:37:38.736Z,20.40
2022-12-15T09:41:59.440Z,24.42
2022-12-15T09:46:24.736Z,21.52
2022-12-15T09:50:39.907Z,24.77
2022-12-15T09:55:01.681Z,22.35
2022-12-15T10:00:01.223Z,21.33
2022-12-15T10:04:21.828Z,24.90
2022-12-15T10:08:40.156Z,20.90
2022-12-15T10:13:02.103Z,19.52
2022-12-15T10:17:17.675Z,22.40
2022-12-15T10:21:32.729Z,24.05
2022-12-15T10:25:51.273Z,22.38
2022-12-15T10:30:07.476Z,24.58
2022-12-15T10:34:27.000Z,20.05
2022-12-15T10:38:43.234Z,22.63
2022-12-15T10:42:55.549Z,20.77
2022-12-15T10:47:32.166Z,30.23
2022-12-15T10:51:49.058Z,21.83
2022-12-15T10:56:02.290Z,23.50
2022-12-15T11:00:14.536Z,19.33
2022-12-15T11:04:29.781Z,23.45
2022-12-15T11:08:44.026Z,21.70
2022-12-15T11:13:21.608Z,26.10
2022-12-15T11:17:43.629Z,25.58
2022-12-15T11:22:05.659Z,21.30
2022-12-15T11:26:59.466Z,22.83
2022-12-15T11:31:34.776Z,21.05
2022-12-15T11:35:47.028Z,19.05
2022-12-15T11:40:20.054Z,24.75
2022-12-15T11:44:39.424Z,11.65
2022-12-15T11:49:14.795Z,19.02
2022-12-15T11:53:44.832Z,21.67
2022-12-15T11:58:16.238Z,21.38
2022-12-15T12:02:50.998Z,22.08
2022-12-15T12:07:16.874Z,23.25
2022-12-15T12:11:50.597Z,24.23
2022-12-15T12:16:27.845Z,19.65
2022-12-15T12:21:14.928Z,22.05
2022-12-15T12:25:27.786Z,25.60
2022-12-15T12:29:56.280Z,25.08
2022-12-15T12:34:26.451Z,26.70
2022-12-15T12:38:53.487Z,28.80
2022-12-15T12:43:11.900Z,18.60
2022-12-15T12:47:36.597Z,32.03
2022-12-15T12:51:54.255Z,24.60
2022-12-15T12:56:06.714Z,28.33
2022-12-15T13:00:22.165Z,26.98
2022-12-15T13:04:43.512Z,31.80
2022-12-15T13:08:56.635Z,28.20
2022-12-15T13:13:30.825Z,25.45
2022-12-15T13:17:51.702Z,34.53
2022-12-15T13:22:04.180Z,28.55
2022-12-15T13:26:19.831Z,24.88
2022-12-15T13:30:32.190Z,25.00
2022-12-15T13:34:44.652Z,22.42
2022-12-15T13:38:58.534Z,25.10
2022-12-15T13:43:41.086Z,20.95
2022-12-15T13:47:56.989Z,26.42
2022-12-15T13:52:59.454Z,25.20
2022-12-15T13:57:16.616Z,21.55
2022-12-15T14:06:03.631Z,25.70
2022-12-15T14:10:30.619Z,28.05
2022-12-15T14:14:50.369Z,24.13
2022-12-15T14:19:19.491Z,21.52
2022-12-15T14:23:48.666Z,24.38
2022-12-15T14:28:31.116Z,27.58
2022-12-15T14:32:46.443Z,20.58
2022-12-15T14:37:03.114Z,23.98
2022-12-15T14:41:25.826Z,23.90
2022-12-15T14:45:38.371Z,22.83
2022-12-15T14:49:51.684Z,27.60
2022-12-15T14:54:05.902Z,17.83
2022-12-15T14:58:30.280Z,25.55
2022-12-15T15:02:42.987Z,23.10
2022-12-15T15:03:15.818Z,28.33
2022-12-15T15:07:01.400Z,25.38
2022-12-15T15:11:30.424Z,26.10
2022-12-15T15:15:43.277Z,23.13
2022-12-15T15:20:08.929Z,24.00
2022-12-15T15:24:25.702Z,23.98
2022-12-15T15:28:43.955Z,21.98
2022-12-15T15:33:00.458Z,22.08
2022-12-15T15:37:24.939Z,24.70
2022-12-15T15:41:37.281Z,21.42
2022-12-15T15:45:53.040Z,23.55
2022-12-15T15:50:05.884Z,26.75
2022-12-15T15:54:25.587Z,23.00
2022-12-15T15:58:38.181Z,25.60
2022-12-15T16:02:50.623Z,22.77
2022-12-15T16:07:03.073Z,26.42
2022-12-15T16:11:15.408Z,24.20
2022-12-15T16:15:30.249Z,27.10
2022-12-15T16:19:42.690Z,31.05
2022-12-15T16:23:56.708Z,30.70
2022-12-15T16:28:18.768Z,16.27
2022-12-15T16:32:32.420Z,21.55
2022-12-15T16:36:45.588Z,29.75
2022-12-15T16:41:00.108Z,31.83
2022-12-15T16:45:20.572Z,26.48
2022-12-15T16:49:38.186Z,28.33
2022-12-15T16:53:52.519Z,25.98
2022-12-15T16:58:06.840Z,28.42
2022-12-15T17:02:29.738Z,27.70
2022-12-15T17:06:42.479Z,27.15
2022-12-15T17:10:55.031Z,26.65
2022-12-15T17:15:28.287Z,25.23
2022-12-15T17:19:52.564Z,25.73
2022-12-15T17:24:17.361Z,30.17
2022-12-15T17:28:33.567Z,26.60
2022-12-15T17:32:46.662Z,27.55
2022-12-15T17:37:01.473Z,28.00
2022-12-15T17:41:35.000Z,25.63
2022-12-15T17:45:47.530Z,22.98
2022-12-15T17:49:59.990Z,36.10
2022-12-15T17:54:18.362Z,33.33
2022-12-15T17:58:30.676Z,24.10
2022-12-15T18:02:43.116Z,29.02
2022-12-15T18:07:05.764Z,28.00
2022-12-15T18:11:18.201Z,26.85
2022-12-15T18:15:32.380Z,35.22
2022-12-15T18:19:44.671Z,26.40
2022-12-15T18:23:57.043Z,29.10
2022-12-15T18:28:48.042Z,30.63
2022-12-15T18:33:00.442Z,23.95
2022-12-15T18:37:17.227Z,33.83
2022-12-15T18:41:29.554Z,29.02
2022-12-15T18:45:42.608Z,32.97
2022-12-15T18:49:54.916Z,39.28
2022-12-15T18:54:07.457Z,30.35
2022-12-15T18:58:21.843Z,33.25
2022-12-15T19:02:35.074Z,34.70
2022-12-15T19:06:47.519Z,28.98
2022-12-15T19:11:22.779Z,33.30
2022-12-15T19:20:20.523Z,38.78
2022-12-15T19:24:55.060Z,26.95
2022-12-15T19:29:26.608Z,29.05
2022-12-15T19:33:49.027Z,27.25
2022-12-15T19:38:03.606Z,25.45
2022-12-15T19:42:21.840Z,33.85
2022-12-15T19:46:34.167Z,24.35
2022-12-15T19:50:54.844Z,36.85
2022-12-15T19:55:19.053Z,29.40
2022-12-15T19:59:31.979Z,28.60
2022-12-15T20:03:46.654Z,22.20
2022-12-15T20:07:59.239Z,38.28
2022-12-15T20:12:19.293Z,31.98
2022-12-15T20:16:31.655Z,39.67
2022-12-15T20:20:54.260Z,32.13
2022-12-15T20:25:07.108Z,29.95
2022-12-15T20:29:27.596Z,27.63
2022-12-15T20:33:39.934Z,33.80
2022-12-15T20:37:53.710Z,39.58
2022-12-15T20:42:06.850Z,22.67
2022-12-15T20:46:22.580Z,27.45
2022-12-15T20:50:38.435Z,30.17
2022-12-15T20:54:51.965Z,21.00
2022-12-15T20:59:13.283Z,16.77
2022-12-15T21:03:31.075Z,22.05
2022-12-15T21:07:54.093Z,20.02
2022-12-15T21:12:19.339Z,19.13
2022-12-15T21:16:33.001Z,18.38
2022-12-15T21:20:51.965Z,22.70
2022-12-15T21:25:05.195Z,20.20
2022-12-15T21:29:29.521Z,17.70
2022-12-15T21:33:41.864Z,21.67
2022-12-15T21:37:54.176Z,20.85
2022-12-15T21:42:18.015Z,19.90
2022-12-15T21:46:30.423Z,15.57
2022-12-15T21:50:45.452Z,17.10
2022-12-15T21:54:57.805Z,15.82
2022-12-15T21:59:22.235Z,20.75
2022-12-15T22:03:34.608Z,16.52
2022-12-15T22:07:47.227Z,13.23
2022-12-15T22:11:59.672Z,17.67
2022-12-15T22:16:12.093Z,14.52
2022-12-15T22:20:34.393Z,13.68
2022-12-15T22:24:46.954Z,23.23
2022-12-15T22:29:02.188Z,21.15
2022-12-15T22:33:26.690Z,17.13
2022-12-15T22:37:39.026Z,15.27
2022-12-15T22:41:52.471Z,17.02
2022-12-15T22:46:07.028Z,16.55
2022-12-15T22:50:22.022Z,12.70
2022-12-15T22:54:34.498Z,14.85
2022-12-15T22:58:48.077Z,20.00
2022-12-15T23:03:00.907Z,20.52
2022-12-15T23:07:13.297Z,23.65
2022-12-15T23:11:42.156Z,19.75
2022-12-15T23:16:13.123Z,17.27
2022-12-15T23:20:25.599Z,15.40
2022-12-15T23:24:37.977Z,23.33
2022-12-15T23:28:50.923Z,13.90
2022-12-15T23:33:03.280Z,15.30
2022-12-15T23:37:16.266Z,14.60
2022-12-15T23:41:30.109Z,16.55
2022-12-15T23:45:43.888Z,9.50
2022-12-15T23:49:56.224Z,14.30
2022-12-15T23:54:09.031Z,17.05
2022-12-15T23:58:31.363Z,16.52
